Time;durP1;ratioP1;P1;durP2;ratioP2;P2;SDS_P1;SDS_P2;PMS_P1;PMS_P2;Temp;Humidity;BMP_temperature;BMP_pressure;BME280_temperature;BME280_humidity;BME280_pressure;Samples;Min_cycle;Max_cycle;Signal;HPM_P1;HPM_P2
2023/09/06 00:02:21;;;;;;;18.92;13.02;;;;;;;19.39;92.83;101742.41;5051283;28;20064;-67
2023/09/06 00:04:48;;;;;;;20.25;12.40;;;;;;;19.37;93.01;101741.94;5051183;28;20613;-67
2023/09/06 00:07:13;;;;;;;18.35;12.52;;;;;;;19.32;93.49;101730.94;5051316;28;20025;-66
2023/09/06 00:09:39;;;;;;;20.20;12.40;;;;;;;19.30;93.54;101736.06;5051350;28;20025;-67
2023/09/06 00:12:05;;;;;;;19.27;12.30;;;;;;;19.21;93.87;101729.72;5051392;28;20028;-66
2023/09/06 00:14:30;;;;;;;19.52;11.88;;;;;;;19.21;94.15;101729.72;5056640;28;20111;-66
2023/09/06 00:16:56;;;;;;;18.10;12.32;;;;;;;19.15;94.25;101726.31;5059422;28;20102;-66
2023/09/06 00:19:21;;;;;;;18.83;12.85;;;;;;;19.11;94.73;101725.38;5058221;28;20530;-67
2023/09/06 00:21:47;;;;;;;20.13;13.40;;;;;;;19.10;94.79;101724.53;5051349;28;20029;-67
2023/09/06 00:24:14;;;;;;;19.55;12.68;;;;;;;19.07;94.81;101727.19;5051219;28;20037;-66
2023/09/06 00:26:40;;;;;;;20.20;12.90;;;;;;;19.03;95.00;101727.06;5052190;28;20021;-66
2023/09/06 00:29:08;;;;;;;19.55;13.07;;;;;;;19.00;95.68;101722.97;5071082;28;20029;-66
2023/09/06 00:31:35;;;;;;;19.45;12.50;;;;;;;18.95;95.46;101714.75;5071131;28;20062;-66
2023/09/06 00:34:01;;;;;;;18.92;12.38;;;;;;;18.93;95.79;101724.69;5071335;28;20040;-66
2023/09/06 00:36:32;;;;;;;20.70;13.82;;;;;;;18.94;96.04;101721.53;5068535;28;20073;-66
2023/09/06 00:38:58;;;;;;;19.73;12.60;;;;;;;18.94;95.71;101715.91;5050972;28;20025;-66
2023/09/06 00:41:24;;;;;;;18.20;13.10;;;;;;;18.90;96.19;101717.75;5053114;28;20079;-66
2023/09/06 00:43:49;;;;;;;19.58;13.18;;;;;;;18.89;96.08;101715.28;5071009;28;20464;-66
2023/09/06 00:46:15;;;;;;;19.05;13.20;;;;;;;18.83;96.40;101718.28;5069945;28;20836;-67
2023/09/06 00:48:40;;;;;;;20.63;12.98;;;;;;;18.81;96.83;101723.41;5058388;28;20083;-66
2023/09/06 00:51:07;;;;;;;19.23;12.77;;;;;;;18.75;97.07;101723.97;5070747;28;20025;-65
2023/09/06 00:53:33;;;;;;;18.55;12.90;;;;;;;18.69;97.17;101732.56;5070389;28;20112;-66
2023/09/06 00:55:59;;;;;;;21.45;13.75;;;;;;;18.66;97.54;101735.25;5070930;28;20036;-66
2023/09/06 00:58:27;;;;;;;18.85;13.85;;;;;;;18.62;97.97;101737.91;5070815;28;20058;-66
2023/09/06 01:00:52;;;;;;;19.35;13.63;;;;;;;18.53;98.64;101739.94;5059625;28;20036;-66
2023/09/06 01:03:18;;;;;;;18.77;13.55;;;;;;;18.46;99.18;101742.47;5067659;28;20037;-66
2023/09/06 01:06:09;;;;;;;19.92;13.40;;;;;;;18.39;99.72;101748.59;5070662;28;20031;-65
2023/09/06 01:08:37;;;;;;;19.58;13.57;;;;;;;18.35;99.92;101748.44;5073347;28;20108;-67
2023/09/06 01:11:14;;;;;;;21.30;13.52;;;;;;;18.35;99.75;101748.44;5074277;28;20025;-66
2023/09/06 01:13:40;;;;;;;19.67;13.45;;;;;;;18.37;100.00;101746.09;5074227;28;20039;-66
2023/09/06 01:16:06;;;;;;;18.50;13.18;;;;;;;18.36;99.88;101752.91;5074321;28;20111;-66
2023/09/06 01:18:31;;;;;;;19.63;14.25;;;;;;;18.34;100.00;101751.56;5072206;28;20139;-66
2023/09/06 01:21:06;;;;;;;20.73;14.15;;;;;;;18.27;100.00;101742.88;5066470;28;20033;-66
2023/09/06 01:23:33;;;;;;;21.13;13.77;;;;;;;18.22;100.00;101743.88;5074187;28;20047;-66
2023/09/06 01:25:59;;;;;;;19.50;13.70;;;;;;;18.22;100.00;101749.50;5074114;28;20444;-66
2023/09/06 01:28:27;;;;;;;19.17;13.65;;;;;;;18.20;100.00;101746.19;5074056;28;20036;-66
2023/09/06 01:30:56;;;;;;;20.25;14.10;;;;;;;18.12;100.00;101742.31;5073633;28;20486;-65
2023/09/06 01:33:22;;;;;;;20.38;13.95;;;;;;;18.13;100.00;101745.91;5073793;28;20021;-65
2023/09/06 01:35:51;;;;;;;20.13;14.75;;;;;;;18.06;100.00;101746.44;5073941;28;20020;-66
2023/09/06 01:38:17;;;;;;;21.00;14.68;;;;;;;17.99;100.00;101746.13;5073838;28;20396;-67
2023/09/06 01:40:43;;;;;;;19.50;13.82;;;;;;;17.95;100.00;101750.75;5073853;28;20021;-67
2023/09/06 01:43:09;;;;;;;20.83;14.45;;;;;;;17.89;100.00;101747.31;5053984;28;20037;-66
2023/09/06 01:45:37;;;;;;;21.95;14.10;;;;;;;17.86;100.00;101739.56;5053646;28;20025;-67
2023/09/06 01:48:05;;;;;;;24.25;13.93;;;;;;;17.85;100.00;101749.13;5053622;28;20082;-66
2023/09/06 01:50:30;;;;;;;20.25;13.95;;;;;;;17.83;100.00;101749.47;5054852;28;20064;-67
2023/09/06 01:52:56;;;;;;;20.08;13.98;;;;;;;17.83;100.00;101751.41;5053376;28;20473;-67
2023/09/06 01:55:21;;;;;;;20.52;14.57;;;;;;;17.80;100.00;101743.72;5053411;28;20518;-67
2023/09/06 01:57:47;;;;;;;20.50;15.48;;;;;;;17.80;100.00;101752.09;5063283;28;20046;-67
2023/09/06 02:00:21;;;;;;;21.60;15.68;;;;;;;17.77;100.00;101747.97;5056525;28;20464;-67
2023/09/06 02:02:47;;;;;;;19.77;14.55;;;;;;;17.73;100.00;101747.00;5073772;28;20028;-67
2023/09/06 02:05:12;;;;;;;21.60;15.00;;;;;;;17.71;100.00;101749.31;5073310;28;20040;-67
2023/09/06 02:07:38;;;;;;;20.13;14.88;;;;;;;17.71;100.00;101752.13;5073180;28;20025;-67
2023/09/06 02:10:07;;;;;;;20.70;15.00;;;;;;;17.68;100.00;101744.38;5072870;28;20032;-67
2023/09/06 02:12:33;;;;;;;21.77;14.68;;;;;;;17.66;100.00;101743.91;5072731;28;20115;-67
2023/09/06 02:14:58;;;;;;;21.88;14.43;;;;;;;17.64;100.00;101743.41;5072996;28;20032;-67
2023/09/06 02:17:24;;;;;;;19.83;13.85;;;;;;;17.60;100.00;101748.84;5072796;28;20028;-67
2023/09/06 02:19:49;;;;;;;20.33;14.52;;;;;;;17.60;100.00;101749.66;5069588;28;20060;-67
2023/09/06 02:22:15;;;;;;;20.67;14.07;;;;;;;17.55;100.00;101752.66;5055694;28;20543;-67
2023/09/06 02:24:40;;;;;;;19.77;14.30;;;;;;;17.49;100.00;101751.16;5052834;28;20436;-67
2023/09/06 02:27:05;;;;;;;20.17;15.30;;;;;;;17.47;100.00;101747.91;5055613;28;20467;-67
2023/09/06 02:29:31;;;;;;;21.45;15.90;;;;;;;17.42;100.00;101756.44;5072563;28;20472;-66
2023/09/06 02:31:57;;;;;;;22.13;15.70;;;;;;;17.38;100.00;101742.31;5072779;28;20051;-67
2023/09/06 02:34:22;;;;;;;22.50;15.00;;;;;;;17.37;100.00;101754.63;5072464;28;20038;-66
2023/09/06 02:36:47;;;;;;;21.40;15.07;;;;;;;17.29;100.00;101755.47;5056724;28;20021;-67
2023/09/06 02:39:16;;;;;;;19.95;14.55;;;;;;;17.22;100.00;101755.97;5052574;28;20029;-66
2023/09/06 02:41:41;;;;;;;19.83;14.25;;;;;;;17.17;100.00;101758.94;5054865;28;20024;-67
2023/09/06 02:44:06;;;;;;;20.13;14.23;;;;;;;17.14;100.00;101762.38;5072311;28;20112;-67
2023/09/06 02:46:33;;;;;;;20.42;14.80;;;;;;;17.04;100.00;101760.75;5072505;28;20028;-66
2023/09/06 02:49:01;;;;;;;20.08;14.70;;;;;;;17.03;100.00;101763.84;5065045;28;20024;-66
2023/09/06 02:51:29;;;;;;;21.30;15.18;;;;;;;16.96;100.00;101765.19;5057670;28;20028;-67
2023/09/06 02:53:56;;;;;;;21.55;15.77;;;;;;;16.91;100.00;101759.69;5072235;28;20062;-67
2023/09/06 02:56:22;;;;;;;22.67;15.90;;;;;;;16.86;100.00;101765.47;5053313;28;20021;-66
2023/09/06 02:58:48;;;;;;;21.40;15.40;;;;;;;16.81;100.00;101762.84;5052136;28;20453;-66
2023/09/06 03:01:19;;;;;;;20.10;15.35;;;;;;;16.73;100.00;101770.03;5067573;28;20377;-66
2023/09/06 03:03:51;;;;;;;20.92;15.68;;;;;;;16.74;100.00;101768.06;5052135;28;20116;-66
2023/09/06 03:06:18;;;;;;;21.30;15.63;;;;;;;16.71;100.00;101763.97;5052004;28;20037;-66
2023/09/06 03:08:46;;;;;;;20.83;15.60;;;;;;;16.74;100.00;101768.06;5052061;28;20033;-66
2023/09/06 03:11:14;;;;;;;21.15;15.30;;;;;;;16.69;100.00;101769.03;5051967;28;20051;-66
2023/09/06 03:13:41;;;;;;;21.35;15.20;;;;;;;16.66;100.00;101776.09;5050875;28;20043;-66
2023/09/06 03:16:07;;;;;;;20.58;15.77;;;;;;;16.61;100.00;101776.28;5051807;28;20024;-66
2023/09/06 03:18:32;;;;;;;21.98;15.05;;;;;;;16.61;100.00;101776.28;5051651;28;20067;-66
2023/09/06 03:21:04;;;;;;;20.13;15.00;;;;;;;16.60;100.00;101771.00;5055460;28;20039;-66
2023/09/06 03:23:29;;;;;;;21.45;15.32;;;;;;;16.56;100.00;101770.81;5059728;28;20029;-67
2023/09/06 03:25:55;;;;;;;21.73;15.88;;;;;;;16.53;100.00;101777.06;5071501;28;20523;-66
2023/09/06 03:28:21;;;;;;;20.85;15.88;;;;;;;16.48;100.00;101778.03;5062245;28;20448;-67
2023/09/06 03:30:47;;;;;;;20.35;15.85;;;;;;;16.49;100.00;101774.09;5050587;28;20369;-67
2023/09/06 03:33:12;;;;;;;19.92;15.38;;;;;;;16.50;100.00;101772.13;5068077;28;20028;-67
2023/09/06 03:35:38;;;;;;;20.70;15.63;;;;;;;16.49;100.00;101770.47;5071554;28;20132;-66
2023/09/06 03:38:10;;;;;;;20.20;15.80;;;;;;;16.47;100.00;101772.78;5071230;28;20044;-67
2023/09/06 03:40:36;;;;;;;21.60;16.10;;;;;;;16.43;100.00;101771.78;5071238;28;20113;-67
2023/09/06 03:43:05;;;;;;;20.38;15.82;;;;;;;16.41;100.00;101782.44;5065095;28;20037;-67
2023/09/06 03:45:34;;;;;;;21.05;16.33;;;;;;;16.36;100.00;101777.84;5052303;28;20041;-67
2023/09/06 03:48:00;;;;;;;21.65;16.20;;;;;;;16.33;100.00;101787.69;5069774;28;20100;-67
2023/09/06 03:50:27;;;;;;;20.85;16.33;;;;;;;16.27;100.00;101786.16;5071432;28;20050;-67
2023/09/06 03:52:53;;;;;;;21.77;16.67;;;;;;;16.19;100.00;101782.22;5071382;28;20020;-67
2023/09/06 03:55:20;;;;;;;22.38;17.13;;;;;;;16.12;100.00;101783.81;5055549;28;20044;-68
2023/09/06 03:57:46;;;;;;;22.50;16.63;;;;;;;16.04;100.00;101788.19;5051212;28;20084;-67
2023/09/06 04:00:31;;;;;;;22.70;16.83;;;;;;;15.97;100.00;101779.47;5051386;28;20052;-67
2023/09/06 04:02:57;;;;;;;20.50;15.82;;;;;;;15.98;100.00;101781.13;5051282;28;20107;-68
2023/09/06 04:05:27;;;;;;;20.90;16.08;;;;;;;15.95;100.00;101776.16;5051246;28;20040;-67
2023/09/06 04:08:00;;;;;;;22.35;16.45;;;;;;;15.96;100.00;101778.66;5050011;28;20060;-66
2023/09/06 04:10:35;;;;;;;22.13;16.57;;;;;;;15.95;100.00;101785.38;5051344;28;20025;-67
2023/09/06 04:13:00;;;;;;;21.17;16.73;;;;;;;15.93;100.00;101787.66;5051910;28;20057;-67
2023/09/06 04:15:25;;;;;;;21.88;17.30;;;;;;;15.87;100.00;101792.56;5064359;28;20071;-67
2023/09/06 04:17:57;;;;;;;22.35;16.85;;;;;;;15.86;100.00;101799.28;5051995;28;20036;-67
2023/09/06 04:20:23;;;;;;;22.17;16.75;;;;;;;15.83;100.00;101796.25;5051073;28;20029;-67
2023/09/06 04:22:49;;;;;;;21.33;17.00;;;;;;;15.81;100.00;101796.59;5060689;28;20071;-67
2023/09/06 04:25:19;;;;;;;21.10;16.27;;;;;;;15.75;100.00;101800.63;5070201;28;20029;-67
2023/09/06 04:27:47;;;;;;;22.45;17.17;;;;;;;15.73;100.00;101803.75;5069941;28;20468;-67
2023/09/06 04:30:15;;;;;;;22.20;17.25;;;;;;;15.70;100.00;101800.78;5060934;28;20049;-67
2023/09/06 04:32:42;;;;;;;21.35;17.35;;;;;;;15.67;100.00;101807.84;5049845;28;20025;-69
2023/09/06 04:35:07;;;;;;;22.23;17.67;;;;;;;15.64;100.00;101816.81;5050031;28;20025;-68
2023/09/06 04:37:35;;;;;;;21.67;16.15;;;;;;;15.67;100.00;101802.25;5049412;28;20131;-68
2023/09/06 04:40:00;;;;;;;22.25;16.80;;;;;;;15.68;100.00;101803.06;5060197;28;20036;-69
2023/09/06 04:42:26;;;;;;;21.90;17.00;;;;;;;15.70;100.00;101806.38;5072120;28;20436;-68
2023/09/06 04:44:51;;;;;;;22.73;16.73;;;;;;;15.73;100.00;101808.50;5073276;28;20036;-68
2023/09/06 04:47:17;;;;;;;23.55;17.48;;;;;;;15.71;100.00;101797.66;5060170;28;20497;-69
2023/09/06 04:49:45;;;;;;;22.33;16.65;;;;;;;15.75;100.00;101806.22;5055614;28;20107;-68
2023/09/06 04:52:11;;;;;;;22.65;18.45;;;;;;;15.72;100.00;101802.09;5065996;28;20029;-66
2023/09/06 04:54:36;;;;;;;21.73;17.30;;;;;;;15.70;100.00;101809.16;5073415;28;20493;-66
2023/09/06 04:57:02;;;;;;;22.73;17.48;;;;;;;15.75;100.00;101807.06;5061495;28;20138;-67
2023/09/06 04:59:27;;;;;;;21.30;17.77;;;;;;;15.72;100.00;101804.91;5060681;28;20031;-68
2023/09/06 05:01:53;;;;;;;21.85;17.90;;;;;;;15.68;100.00;101805.84;5054068;28;20052;-68
2023/09/06 05:04:19;;;;;;;21.50;17.50;;;;;;;15.65;100.00;101812.91;5053911;28;20036;-69
2023/09/06 05:06:44;;;;;;;22.40;17.67;;;;;;;15.63;100.00;101817.16;5054008;28;20082;-68
2023/09/06 05:09:10;;;;;;;23.17;17.63;;;;;;;15.64;100.00;101807.63;5052562;28;20037;-68
2023/09/06 05:11:36;;;;;;;24.80;17.55;;;;;;;15.70;100.00;101809.16;5053221;28;20036;-68
2023/09/06 05:14:01;;;;;;;22.92;16.85;;;;;;;15.66;100.00;101820.13;5052736;28;20052;-69
2023/09/06 05:16:26;;;;;;;23.60;17.13;;;;;;;15.66;100.00;101828.50;5053036;28;20223;-68
2023/09/06 05:18:52;;;;;;;23.55;16.92;;;;;;;15.67;100.00;101827.34;5061794;28;20445;-68
2023/09/06 05:21:18;;;;;;;22.63;16.90;;;;;;;15.70;100.00;101839.84;5070209;28;20028;-68
2023/09/06 05:23:43;;;;;;;22.27;16.15;;;;;;;15.69;100.00;101838.19;5052749;28;20033;-69
2023/09/06 05:26:10;;;;;;;22.55;16.13;;;;;;;15.70;100.00;101832.28;5053160;28;20377;-68
2023/09/06 05:28:35;;;;;;;22.15;16.98;;;;;;;15.74;100.00;101836.09;5053700;28;20035;-68
2023/09/06 05:31:02;;;;;;;23.63;17.17;;;;;;;15.74;100.00;101836.09;5053417;28;20123;-68
2023/09/06 05:33:28;;;;;;;23.80;17.08;;;;;;;15.79;100.00;101840.72;5053279;28;20025;-69
2023/09/06 05:35:56;;;;;;;23.73;16.77;;;;;;;15.82;100.00;101836.47;5057385;28;20021;-69
2023/09/06 05:38:22;;;;;;;21.63;17.05;;;;;;;15.87;100.00;101834.41;5073513;28;20082;-68
2023/09/06 05:40:49;;;;;;;23.17;17.10;;;;;;;15.99;100.00;101844.97;5073268;28;20032;-68
2023/09/06 05:43:14;;;;;;;22.88;16.63;;;;;;;16.05;100.00;101842.88;5073499;28;20152;-68
2023/09/06 05:45:40;;;;;;;22.35;16.70;;;;;;;16.08;100.00;101845.03;5073407;28;20100;-68
2023/09/06 05:48:06;;;;;;;22.60;17.85;;;;;;;16.15;100.00;101850.19;5073466;28;20583;-69
2023/09/06 05:50:31;;;;;;;22.80;17.25;;;;;;;16.18;100.00;101850.34;5073297;28;20041;-69
2023/09/06 05:52:57;;;;;;;22.85;17.17;;;;;;;16.24;100.00;101851.03;5072529;28;20119;-69
2023/09/06 05:55:22;;;;;;;23.95;17.33;;;;;;;16.32;100.00;101853.06;5072382;28;20116;-69
2023/09/06 05:57:48;;;;;;;21.77;17.02;;;;;;;16.38;100.00;101854.56;5052721;28;20083;-67
2023/09/06 06:00:15;;;;;;;22.42;17.45;;;;;;;16.44;100.00;101848.81;5056439;28;20028;-67
2023/09/06 06:02:41;;;;;;;24.85;17.55;;;;;;;16.50;100.00;101851.16;5057898;28;20037;-67
2023/09/06 06:05:07;;;;;;;21.75;17.40;;;;;;;16.55;100.00;101852.16;5052843;28;20043;-67
2023/09/06 06:07:33;;;;;;;23.02;17.58;;;;;;;16.62;100.00;101861.72;5069011;28;20024;-67
2023/09/06 06:09:58;;;;;;;23.75;18.17;;;;;;;16.69;100.00;101858.44;5069923;28;20028;-67
2023/09/06 06:12:24;;;;;;;22.13;17.30;;;;;;;16.76;100.00;101860.78;5052569;28;20067;-67
2023/09/06 06:14:51;;;;;;;22.17;17.38;;;;;;;16.83;100.00;101864.75;5052857;28;20020;-67
2023/09/06 06:17:17;;;;;;;23.88;18.13;;;;;;;16.88;100.00;101857.34;5052769;28;20033;-67
2023/09/06 06:19:43;;;;;;;24.38;17.25;;;;;;;16.96;100.00;101871.38;5052633;28;20109;-68
2023/09/06 06:22:09;;;;;;;23.25;19.00;;;;;;;17.00;100.00;101863.19;5054733;28;20037;-68
2023/09/06 06:24:35;;;;;;;22.00;17.33;;;;;;;17.09;100.00;101866.00;5053408;28;20025;-68
2023/09/06 06:27:00;;;;;;;23.25;18.77;;;;;;;17.13;100.00;101867.81;5071844;28;20086;-67
2023/09/06 06:29:25;;;;;;;28.92;22.85;;;;;;;17.23;100.00;101874.25;5052017;28;20477;-68
2023/09/06 06:31:52;;;;;;;24.90;19.00;;;;;;;17.28;100.00;101876.88;5052302;28;20035;-68
2023/09/06 06:34:20;;;;;;;23.10;17.88;;;;;;;17.36;100.00;101866.84;5052429;28;20017;-68
2023/09/06 06:36:46;;;;;;;23.90;17.10;;;;;;;17.43;100.00;101865.19;5052012;28;20435;-68
2023/09/06 06:39:12;;;;;;;23.38;17.80;;;;;;;17.51;100.00;101869.16;5068848;28;20036;-68
2023/09/06 06:41:38;;;;;;;23.65;18.52;;;;;;;17.59;100.00;101870.31;5051929;28;20021;-70
2023/09/06 06:44:04;;;;;;;24.48;17.77;;;;;;;17.66;100.00;101872.63;5052115;28;20065;-68
2023/09/06 06:46:32;;;;;;;24.05;17.52;;;;;;;17.75;100.00;101865.03;5052011;28;20219;-69
2023/09/06 06:48:59;;;;;;;23.13;17.55;;;;;;;17.82;100.00;101870.97;5062904;28;20048;-69
2023/09/06 06:51:31;;;;;;;24.70;18.17;;;;;;;17.93;100.00;101872.25;5072078;28;20678;-69
2023/09/06 06:53:57;;;;;;;23.85;16.92;;;;;;;18.04;100.00;101886.75;5055507;28;20033;-69
2023/09/06 06:56:22;;;;;;;24.10;17.52;;;;;;;18.12;100.00;101882.31;5052004;28;20036;-69
2023/09/06 06:58:48;;;;;;;22.63;18.08;;;;;;;18.19;100.00;101878.97;5070285;28;20031;-70
2023/09/06 07:01:14;;;;;;;22.67;17.65;;;;;;;18.29;100.00;101886.22;5063002;28;20029;-69
2023/09/06 07:03:40;;;;;;;22.13;17.13;;;;;;;18.37;100.00;101885.38;5051827;28;20443;-71
2023/09/06 07:06:06;;;;;;;22.50;17.00;;;;;;;18.46;100.00;101885.34;5051727;28;20086;-70
2023/09/06 07:08:31;;;;;;;24.80;17.25;;;;;;;18.54;100.00;101876.09;5065191;28;20769;-68
2023/09/06 07:10:58;;;;;;;24.55;18.48;;;;;;;18.62;100.00;101878.03;5071644;28;20119;-67
2023/09/06 07:13:23;;;;;;;23.80;17.98;;;;;;;18.71;100.00;101886.38;5071782;28;20025;-67
2023/09/06 07:15:49;;;;;;;23.90;17.75;;;;;;;18.78;100.00;101878.28;5071627;28;20487;-68
2023/09/06 07:18:14;;;;;;;23.58;17.38;;;;;;;18.84;100.00;101882.53;5064106;28;20029;-68
2023/09/06 07:20:40;;;;;;;21.90;17.27;;;;;;;18.91;100.00;101879.19;5056145;28;20128;-66
2023/09/06 07:23:05;;;;;;;23.25;17.98;;;;;;;18.97;100.00;101871.44;5063640;28;20037;-66
2023/09/06 07:25:31;;;;;;;22.98;18.10;;;;;;;19.05;100.00;101883.75;5050753;28;20356;-67
2023/09/06 07:27:59;;;;;;;22.95;17.35;;;;;;;19.11;100.00;101882.41;5050669;28;20468;-67
2023/09/06 07:30:24;;;;;;;22.15;17.05;;;;;;;19.20;100.00;101879.53;5050065;28;20053;-67
2023/09/06 07:32:50;;;;;;;22.17;17.83;;;;;;;19.25;100.00;101877.34;5049978;28;20033;-67
2023/09/06 07:35:16;;;;;;;22.77;18.05;;;;;;;19.31;100.00;101877.97;5061427;28;20052;-67
2023/09/06 07:37:43;;;;;;;23.63;17.50;;;;;;;19.41;100.00;101885.19;5069274;28;20080;-68
2023/09/06 07:40:10;;;;;;;23.48;18.23;;;;;;;19.50;100.00;101885.94;5070363;28;20039;-67
2023/09/06 07:42:39;;;;;;;24.52;17.90;;;;;;;19.57;99.94;101883.41;5070161;28;20697;-67
2023/09/06 07:45:07;;;;;;;23.52;17.40;;;;;;;19.68;99.37;101886.59;5070391;28;20028;-68
2023/09/06 07:47:33;;;;;;;22.30;17.10;;;;;;;19.74;99.84;101888.03;5058908;28;20115;-67
2023/09/06 07:49:59;;;;;;;21.35;16.65;;;;;;;19.84;99.74;101888.78;5058343;28;20041;-67
2023/09/06 07:52:24;;;;;;;22.15;16.98;;;;;;;19.95;99.86;101896.47;5058748;28;20021;-67
2023/09/06 07:54:50;;;;;;;22.40;16.15;;;;;;;20.00;99.25;101892.63;5056506;28;20035;-67
2023/09/06 07:57:15;;;;;;;23.30;17.20;;;;;;;20.14;100.00;101891.47;5064323;28;20021;-66
2023/09/06 07:59:40;;;;;;;23.80;16.60;;;;;;;20.25;99.83;101893.53;5070126;28;20035;-66
2023/09/06 08:02:06;;;;;;;22.80;16.77;;;;;;;20.34;98.72;101896.22;5070073;28;20029;-68
2023/09/06 08:04:31;;;;;;;21.75;15.85;;;;;;;20.39;97.46;101889.56;5070011;28;20063;-67
2023/09/06 08:06:57;;;;;;;23.40;16.85;;;;;;;20.50;96.83;101895.56;5070259;28;20104;-67
2023/09/06 08:09:22;;;;;;;21.38;16.13;;;;;;;20.60;96.70;101894.25;5070218;28;20034;-67
2023/09/06 08:11:47;;;;;;;21.48;15.50;;;;;;;20.72;94.63;101897.09;5062424;28;20033;-67
2023/09/06 08:14:12;;;;;;;22.45;15.30;;;;;;;20.76;94.86;101898.06;5051095;28;20116;-67
2023/09/06 08:16:38;;;;;;;22.52;16.15;;;;;;;20.89;94.73;101896.06;5064745;28;20035;-66
2023/09/06 08:19:03;;;;;;;24.15;16.30;;;;;;;21.00;94.28;101893.59;5064137;28;20376;-66
2023/09/06 08:21:29;;;;;;;22.95;16.40;;;;;;;21.10;95.55;101892.31;5055880;28;20403;-66
2023/09/06 08:23:54;;;;;;;23.45;16.60;;;;;;;21.19;95.43;101890.19;5054442;28;20245;-67
2023/09/06 08:26:21;;;;;;;22.67;16.27;;;;;;;21.30;95.57;101898.97;5054147;28;20539;-68
2023/09/06 08:28:47;;;;;;;22.30;17.23;;;;;;;21.39;95.76;101896.84;5054011;28;20078;-68
2023/09/06 08:31:12;;;;;;;22.90;16.95;;;;;;;21.46;95.72;101897.03;5054566;28;20057;-68
2023/09/06 08:33:38;;;;;;;21.55;17.33;;;;;;;21.61;95.26;101903.97;5055441;28;20461;-69
2023/09/06 08:36:03;;;;;;;24.02;16.85;;;;;;;21.68;94.72;101896.88;5054959;28;20492;-68
2023/09/06 08:38:29;;;;;;;21.85;15.10;;;;;;;21.80;92.64;101900.47;5053818;28;20117;-68
2023/09/06 08:40:55;;;;;;;20.60;15.50;;;;;;;21.91;89.95;101900.81;5054388;28;20053;-70
2023/09/06 08:43:23;;;;;;;25.70;15.98;;;;;;;22.01;87.72;101902.28;5054854;28;20075;-70
2023/09/06 08:45:50;;;;;;;21.20;14.63;;;;;;;22.07;87.03;101888.75;5055091;28;20460;-68
2023/09/06 08:48:15;;;;;;;22.17;14.40;;;;;;;22.22;86.50;101899.22;5055133;28;20467;-68
2023/09/06 08:50:41;;;;;;;19.73;13.77;;;;;;;22.35;84.99;101893.50;5055105;28;20039;-69
2023/09/06 08:53:10;;;;;;;20.17;14.45;;;;;;;22.43;83.62;101896.16;5054849;28;20078;-68
2023/09/06 08:55:35;;;;;;;20.17;13.98;;;;;;;22.58;83.78;101891.72;5053476;28;20048;-69
2023/09/06 08:58:03;;;;;;;20.48;13.80;;;;;;;22.61;82.77;101897.81;5054281;28;20132;-68
2023/09/06 09:00:29;;;;;;;21.63;14.20;;;;;;;22.74;81.93;101888.09;5062346;28;20029;-67
2023/09/06 09:02:56;;;;;;;21.50;13.65;;;;;;;22.79;82.84;101895.47;5061893;28;20029;-67
2023/09/06 09:05:22;;;;;;;19.92;13.98;;;;;;;22.96;81.59;101900.72;5064752;28;20036;-67
2023/09/06 09:08:01;;;;;;;21.15;14.15;;;;;;;23.08;81.81;101899.78;5060788;28;20024;-67
2023/09/06 09:10:31;;;;;;;21.05;13.70;;;;;;;23.10;81.57;101888.94;5063505;28;20020;-67
2023/09/06 09:12:58;;;;;;;21.75;13.85;;;;;;;23.25;80.81;101894.94;5063037;28;20033;-67
2023/09/06 09:15:27;;;;;;;20.15;13.77;;;;;;;23.34;80.74;101899.22;5053036;28;20148;-67
2023/09/06 09:17:53;;;;;;;21.42;14.05;;;;;;;23.43;81.23;101892.53;5053319;28;20483;-68
2023/09/06 09:20:19;;;;;;;20.65;14.40;;;;;;;23.52;80.38;101904.41;5053002;28;20028;-68
2023/09/06 09:22:45;;;;;;;20.98;13.88;;;;;;;23.64;80.49;101900.63;5053804;28;20386;-68
2023/09/06 09:25:17;;;;;;;21.95;13.85;;;;;;;23.72;80.90;101890.31;5060075;28;20024;-68
2023/09/06 09:27:49;;;;;;;19.58;13.15;;;;;;;23.93;81.30;101904.03;5071981;28;20033;-69
2023/09/06 09:30:16;;;;;;;20.48;12.65;;;;;;;24.04;80.62;101896.63;5072246;28;20049;-68
2023/09/06 09:32:42;;;;;;;20.55;13.02;;;;;;;24.17;79.47;101896.47;5072308;28;20169;-69
2023/09/06 09:35:12;;;;;;;21.15;13.45;;;;;;;24.29;78.10;101899.09;5067001;28;20111;-67
2023/09/06 09:37:42;;;;;;;19.58;13.85;;;;;;;24.37;78.63;101908.53;5064829;28;20036;-65
2023/09/06 09:40:17;;;;;;;22.52;13.63;;;;;;;24.46;78.67;101906.28;5058728;28;20028;-66
2023/09/06 09:42:52;;;;;;;21.70;13.32;;;;;;;24.53;78.08;101891.47;5054727;28;20048;-66
2023/09/06 09:45:18;;;;;;;19.67;12.68;;;;;;;24.57;77.05;101889.50;5053621;28;20056;-66
2023/09/06 09:47:44;;;;;;;20.80;13.40;;;;;;;24.64;77.23;101891.63;5063663;28;20082;-66
2023/09/06 09:50:11;;;;;;;21.60;13.43;;;;;;;24.71;76.27;101889.78;5063447;28;20036;-66
2023/09/06 09:52:38;;;;;;;20.10;13.27;;;;;;;24.72;74.94;101885.75;5063422;28;20048;-66
2023/09/06 09:55:06;;;;;;;21.50;14.20;;;;;;;24.77;74.62;101885.41;5060013;28;20028;-67
2023/09/06 09:57:34;;;;;;;21.80;13.60;;;;;;;24.83;74.53;101882.28;5059256;28;20036;-66
2023/09/06 10:00:00;;;;;;;20.05;13.18;;;;;;;24.93;74.78;101881.63;5073411;28;20021;-66
2023/09/06 10:02:27;;;;;;;20.13;13.63;;;;;;;24.97;73.07;101879.66;5074248;28;20043;-66
2023/09/06 10:04:53;;;;;;;20.10;13.50;;;;;;;25.05;73.37;101884.22;5052493;28;20041;-66
2023/09/06 10:07:20;;;;;;;19.90;13.23;;;;;;;25.17;73.09;101879.53;5072091;28;20040;-67
2023/09/06 10:09:47;;;;;;;19.83;13.05;;;;;;;25.28;72.99;101880.50;5054721;28;20029;-66
2023/09/06 10:12:14;;;;;;;19.95;12.75;;;;;;;25.32;71.42;101886.22;5078754;28;20564;-67
2023/09/06 10:14:41;;;;;;;20.45;13.57;;;;;;;25.42;69.98;101879.91;5055809;28;20029;-66
2023/09/06 10:17:11;;;;;;;19.25;12.27;;;;;;;25.55;72.80;101877.66;5061774;28;20477;-66
2023/09/06 10:19:37;;;;;;;18.55;12.10;;;;;;;25.62;68.58;101877.75;5065662;28;20025;-66
2023/09/06 10:22:05;;;;;;;19.45;12.05;;;;;;;25.58;67.16;101859.91;5071728;28;20146;-66
2023/09/06 10:24:33;;;;;;;18.98;11.55;;;;;;;25.70;65.31;101876.63;5056859;28;20059;-67
2023/09/06 10:27:00;;;;;;;17.50;11.65;;;;;;;25.72;65.18;101875.41;5070306;28;20053;-68
2023/09/06 10:29:29;;;;;;;18.50;11.85;;;;;;;25.76;67.01;101864.97;5061121;28;20135;-67
2023/09/06 10:32:01;;;;;;;18.95;11.82;;;;;;;25.83;65.06;101870.69;5063197;28;20036;-67
2023/09/06 10:34:30;;;;;;;17.70;11.50;;;;;;;25.96;65.98;101874.06;5059730;28;20025;-67
2023/09/06 10:36:58;;;;;;;18.63;11.75;;;;;;;25.97;62.42;101884.22;5060785;28;20040;-67
2023/09/06 10:39:26;;;;;;;18.77;11.65;;;;;;;25.97;62.29;101879.38;5056357;28;20040;-66
2023/09/06 10:42:13;;;;;;;19.00;12.00;;;;;;;26.08;63.27;101872.97;5061285;28;20029;-66
2023/09/06 10:44:53;;;;;;;17.48;11.45;;;;;;;26.12;64.59;101871.84;5061413;28;20029;-67
2023/09/06 10:47:25;;;;;;;17.50;10.93;;;;;;;26.18;62.72;101872.31;5057810;28;20527;-66
2023/09/06 10:50:12;;;;;;;18.05;11.00;;;;;;;26.24;63.09;101867.09;5050862;28;20024;-66
2023/09/06 10:52:43;;;;;;;19.25;11.02;;;;;;;26.28;60.36;101867.97;5052312;28;20120;-66
2023/09/06 10:55:13;;;;;;;18.10;10.90;;;;;;;26.29;58.80;101861.88;5052233;28;20409;-67
2023/09/06 10:57:52;;;;;;;17.25;11.07;;;;;;;26.35;60.01;101864.38;5053183;28;20029;-66
2023/09/06 11:00:26;;;;;;;18.45;10.43;;;;;;;26.40;59.56;101852.66;5050866;28;20028;-68
2023/09/06 11:03:07;;;;;;;17.85;10.70;;;;;;;26.52;59.67;101854.38;5055496;28;20043;-68
2023/09/06 11:05:37;;;;;;;18.40;11.10;;;;;;;26.55;56.40;101854.41;5060956;28;20178;-65